Time;durP1;ratioP1;P1;durP2;ratioP2;P2;SDS_P1;SDS_P2;PMS_P1;PMS_P2;Temp;Humidity;BMP_temperature;BMP_pressure;BME280_temperature;BME280_humidity;BME280_pressure;Samples;Min_cycle;Max_cycle;Signal;HPM_P1;HPM_P2
2021/01/15 00:02:01;;;;;;;14.90;7.60;;;;;;;-1.94;95.77;101412.56;5077693;28;20146;-81
2021/01/15 00:04:26;;;;;;;16.42;7.95;;;;;;;-1.92;95.62;101419.47;5076848;28;20412;-81
2021/01/15 00:07:05;;;;;;;16.88;7.63;;;;;;;-1.89;95.82;101418.75;5078966;28;20104;-81
2021/01/15 00:09:31;;;;;;;12.43;6.60;;;;;;;-1.87;95.44;101419.72;5077350;28;20122;-81
2021/01/15 00:11:56;;;;;;;14.18;6.90;;;;;;;-1.85;95.47;101418.09;5077263;28;20029;-80
2021/01/15 00:14:21;;;;;;;14.85;7.50;;;;;;;-1.82;94.63;101409.72;5076436;28;20479;-81
2021/01/15 00:16:46;;;;;;;14.70;6.13;;;;;;;-1.80;94.16;101410.69;5076648;28;20039;-81
2021/01/15 00:19:12;;;;;;;12.73;6.63;;;;;;;-1.76;94.66;101413.41;5078868;28;20025;-81
2021/01/15 00:21:47;;;;;;;13.45;6.43;;;;;;;-1.74;94.73;101411.81;5077933;28;20419;-81
2021/01/15 00:24:13;;;;;;;12.23;6.93;;;;;;;-1.76;94.33;101413.41;5076613;28;20028;-81
2021/01/15 00:26:40;;;;;;;13.07;6.45;;;;;;;-1.70;93.88;101410.28;5076731;28;20066;-81
2021/01/15 00:29:05;;;;;;;12.40;6.25;;;;;;;-1.72;92.98;101412.78;5077971;28;20027;-81
2021/01/15 00:31:31;;;;;;;12.95;6.53;;;;;;;-1.68;93.53;101413.78;5076210;28;20025;-81
2021/01/15 00:33:57;;;;;;;12.38;6.30;;;;;;;-1.65;93.30;101412.25;5076487;28;20029;-81
2021/01/15 00:36:22;;;;;;;12.80;6.38;;;;;;;-1.64;93.56;101408.88;5076354;28;20025;-81
2021/01/15 00:38:47;;;;;;;13.00;7.20;;;;;;;-1.61;93.40;101413.25;5078207;28;20026;-81
2021/01/15 00:41:12;;;;;;;13.93;6.88;;;;;;;-1.60;93.23;101411.56;5077702;28;20380;-81
2021/01/15 00:43:38;;;;;;;12.80;6.85;;;;;;;-1.65;93.08;101416.47;5076184;28;20092;-82
2021/01/15 00:46:07;;;;;;;10.98;6.25;;;;;;;-1.61;93.30;101408.16;5076372;28;20020;-81
2021/01/15 00:48:34;;;;;;;14.18;7.65;;;;;;;-1.65;92.99;101408.84;5075932;28;20020;-81
2021/01/15 00:51:07;;;;;;;12.60;6.70;;;;;;;-1.65;92.57;101403.75;5077131;28;20618;-81
2021/01/15 00:53:32;;;;;;;12.00;6.60;;;;;;;-1.69;92.89;101407.84;5076833;28;20024;-81
2021/01/15 00:55:57;;;;;;;12.05;6.72;;;;;;;-1.72;93.05;101400.06;5077189;28;20035;-81
2021/01/15 00:58:22;;;;;;;12.82;6.97;;;;;;;-1.75;93.22;101405.00;5075467;28;20020;-81
2021/01/15 01:00:47;;;;;;;14.95;6.95;;;;;;;-1.72;92.87;101409.38;5076827;28;20028;-81
2021/01/15 01:03:13;;;;;;;11.13;6.18;;;;;;;-1.76;92.67;101403.25;5075292;28;20392;-81
2021/01/15 01:05:38;;;;;;;13.15;6.90;;;;;;;-1.79;93.05;101412.41;5076933;28;20118;-81
2021/01/15 01:08:04;;;;;;;13.85;7.00;;;;;;;-1.80;93.50;101406.47;5077347;28;20028;-81
2021/01/15 01:10:29;;;;;;;12.95;7.03;;;;;;;-1.77;92.92;101409.16;5077495;28;20169;-81
2021/01/15 01:12:55;;;;;;;12.85;6.88;;;;;;;-1.76;93.06;101407.47;5076522;28;20033;-81
2021/01/15 01:15:20;;;;;;;14.15;8.20;;;;;;;-1.74;92.67;101416.91;5075635;28;20116;-81
2021/01/15 01:17:46;;;;;;;16.60;8.52;;;;;;;-1.74;93.36;101410.97;5075561;28;20427;-81
2021/01/15 01:20:11;;;;;;;25.30;12.95;;;;;;;-1.78;93.32;101416.72;5076043;28;20107;-81
2021/01/15 01:22:38;;;;;;;25.10;12.90;;;;;;;-1.86;93.27;101412.13;5076404;28;20506;-81
2021/01/15 01:25:05;;;;;;;18.75;11.25;;;;;;;-1.93;93.79;101425.38;5078467;28;20024;-81
2021/01/15 01:27:30;;;;;;;20.92;11.98;;;;;;;-1.88;94.37;101423.03;5079511;28;20024;-81
2021/01/15 01:29:55;;;;;;;16.70;9.73;;;;;;;-1.92;94.32;101421.16;5079970;28;20028;-81
2021/01/15 01:32:21;;;;;;;23.08;11.73;;;;;;;-1.89;94.20;101427.25;5077984;28;20020;-81
2021/01/15 01:34:46;;;;;;;21.15;10.52;;;;;;;-1.90;94.48;101429.75;5079592;28;20047;-81
2021/01/15 01:37:11;;;;;;;14.85;8.63;;;;;;;-1.90;94.53;101434.81;5081115;28;20024;-81
2021/01/15 01:39:36;;;;;;;17.88;8.57;;;;;;;-1.87;94.42;101435.81;5078916;28;20032;-81
2021/01/15 01:42:02;;;;;;;14.27;7.75;;;;;;;-1.85;93.94;101440.97;5078334;28;20024;-81
2021/01/15 01:44:27;;;;;;;14.23;7.88;;;;;;;-1.83;94.48;101441.06;5077966;28;20017;-81
2021/01/15 01:46:53;;;;;;;14.23;7.47;;;;;;;-1.77;94.22;101439.66;5078938;28;20025;-81
2021/01/15 01:49:19;;;;;;;12.32;7.10;;;;;;;-1.75;93.90;101445.69;5077502;28;20020;-81
2021/01/15 01:51:46;;;;;;;13.60;7.32;;;;;;;-1.75;94.20;101444.84;5076153;28;20024;-81
2021/01/15 01:54:12;;;;;;;12.93;7.65;;;;;;;-1.73;94.00;101446.63;5077428;28;20425;-81
2021/01/15 01:56:39;;;;;;;13.07;7.75;;;;;;;-1.73;94.08;101449.16;5076948;28;20095;-81
2021/01/15 01:59:06;;;;;;;14.23;8.77;;;;;;;-1.72;94.30;101456.00;5085109;28;20024;-81
2021/01/15 02:01:31;;;;;;;15.38;7.78;;;;;;;-1.70;94.14;101448.44;5089046;28;20388;-81
2021/01/15 02:04:04;;;;;;;14.07;8.48;;;;;;;-1.68;94.15;101451.94;5088199;28;20119;-81
2021/01/15 02:06:34;;;;;;;14.55;8.10;;;;;;;-1.65;93.82;101458.03;5091067;28;20467;-81
2021/01/15 02:09:03;;;;;;;13.65;7.88;;;;;;;-1.67;94.13;101453.66;5078275;28;20021;-81
2021/01/15 02:11:54;;;;;;;14.45;8.65;;;;;;;-1.69;94.50;101451.06;5078766;28;20079;-81
2021/01/15 02:14:34;;;;;;;16.63;8.38;;;;;;;-1.69;94.05;101448.53;5078425;28;20031;-81
2021/01/15 02:17:01;;;;;;;18.00;8.77;;;;;;;-1.68;94.43;101452.78;5078136;28;20028;-80
2021/01/15 02:19:51;;;;;;;17.00;9.02;;;;;;;-1.69;94.71;101448.53;5078542;28;20017;-80
2021/01/15 02:22:34;;;;;;;15.65;8.90;;;;;;;-1.69;94.93;101440.03;5078784;28;20028;-81
2021/01/15 02:25:24;;;;;;;15.93;8.85;;;;;;;-1.65;94.49;101439.34;5080306;28;20047;-81
2021/01/15 02:28:17;;;;;;;17.48;9.00;;;;;;;-1.65;94.36;101452.94;5081476;28;20032;-80
2021/01/15 02:31:10;;;;;;;15.75;9.32;;;;;;;-1.61;94.80;101451.41;5086364;28;20100;-81
2021/01/15 02:34:25;;;;;;;15.90;9.82;;;;;;;-1.62;94.52;101440.34;5079578;28;20021;-80
2021/01/15 02:37:26;;;;;;;16.85;9.32;;;;;;;-1.65;95.22;101447.84;5079861;28;20024;-80
2021/01/15 02:40:18;;;;;;;16.15;9.50;;;;;;;-1.63;94.86;101446.25;5078977;28;20029;-80
2021/01/15 02:42:46;;;;;;;17.67;8.45;;;;;;;-1.62;95.11;101450.53;5080221;28;20035;-80
2021/01/15 02:45:13;;;;;;;15.95;9.13;;;;;;;-1.60;94.78;101449.72;5078959;28;20059;-80
2021/01/15 02:47:52;;;;;;;17.30;10.18;;;;;;;-1.58;94.88;101453.22;5078761;28;20035;-80
2021/01/15 02:50:23;;;;;;;18.35;9.52;;;;;;;-1.61;94.95;101446.31;5078375;28;20024;-82
2021/01/15 02:52:48;;;;;;;19.75;10.48;;;;;;;-1.62;95.36;101453.06;5077891;28;20024;-80
2021/01/15 02:55:14;;;;;;;16.17;10.13;;;;;;;-1.61;94.69;101451.41;5078163;28;20020;-80
2021/01/15 02:57:40;;;;;;;18.20;10.10;;;;;;;-1.57;95.25;101455.84;5077753;28;20023;-80
2021/01/15 03:00:11;;;;;;;20.00;11.00;;;;;;;-1.56;94.58;101454.16;5078142;28;20025;-81
2021/01/15 03:02:55;;;;;;;19.17;10.70;;;;;;;-1.55;94.88;101463.53;5078150;28;20028;-80
2021/01/15 03:05:23;;;;;;;18.52;10.90;;;;;;;-1.54;95.06;101465.25;5077274;28;20025;-80
2021/01/15 03:07:50;;;;;;;18.63;10.60;;;;;;;-1.53;95.03;101456.84;5077950;28;20162;-80
2021/01/15 03:10:19;;;;;;;16.63;9.90;;;;;;;-1.58;94.94;101463.38;5078240;28;20020;-80
2021/01/15 03:12:46;;;;;;;17.85;10.38;;;;;;;-1.55;94.99;101464.38;5077664;28;20111;-81
2021/01/15 03:15:13;;;;;;;20.73;11.40;;;;;;;-1.54;94.98;101460.16;5078586;28;20028;-80
2021/01/15 03:17:43;;;;;;;18.08;10.45;;;;;;;-1.55;95.28;101463.53;5060041;28;20029;-80
2021/01/15 03:20:10;;;;;;;18.20;10.73;;;;;;;-1.52;95.70;101478.94;5077557;28;20032;-80
2021/01/15 03:22:38;;;;;;;18.50;11.57;;;;;;;-1.52;95.36;101474.72;5077215;28;20392;-81
2021/01/15 03:25:04;;;;;;;19.65;10.93;;;;;;;-1.54;95.28;101475.44;5077978;28;20103;-80
2021/01/15 03:27:41;;;;;;;20.00;10.73;;;;;;;-1.57;95.39;101475.28;5076385;28;20059;-80
2021/01/15 03:30:07;;;;;;;19.67;11.07;;;;;;;-1.53;95.78;101487.38;5078849;28;20070;-80
2021/01/15 03:32:33;;;;;;;21.50;11.00;;;;;;;-1.51;95.14;101483.19;5077181;28;20032;-80
2021/01/15 03:34:58;;;;;;;21.63;11.02;;;;;;;-1.48;95.22;101481.69;5078196;28;20153;-80
2021/01/15 03:37:23;;;;;;;16.73;10.13;;;;;;;-1.44;95.65;101487.78;5078541;28;20028;-80
2021/01/15 03:39:48;;;;;;;19.63;11.48;;;;;;;-1.47;95.15;101490.19;5078575;28;20028;-80
2021/01/15 03:42:14;;;;;;;17.60;10.98;;;;;;;-1.44;94.97;101481.03;5077072;28;20505;-80
2021/01/15 03:44:39;;;;;;;18.77;10.88;;;;;;;-1.41;95.00;101482.84;5077024;28;20024;-81
2021/01/15 03:47:04;;;;;;;19.98;10.65;;;;;;;-1.45;94.67;101496.19;5077043;28;20024;-80
2021/01/15 03:49:29;;;;;;;16.58;10.10;;;;;;;-1.42;94.89;101492.16;5076894;28;20549;-80
2021/01/15 03:51:55;;;;;;;18.40;10.77;;;;;;;-1.39;94.66;101483.75;5077035;28;20024;-80
2021/01/15 03:54:20;;;;;;;20.13;10.98;;;;;;;-1.43;94.44;101484.44;5076800;28;20028;-80
2021/01/15 03:56:45;;;;;;;17.05;10.52;;;;;;;-1.38;94.42;101485.53;5078089;28;20046;-81
2021/01/15 03:59:10;;;;;;;20.33;10.75;;;;;;;-1.40;94.50;101482.03;5078053;28;20035;-80
2021/01/15 04:01:36;;;;;;;18.80;10.15;;;;;;;-1.39;94.69;101486.31;5077809;28;20021;-80
2021/01/15 04:04:02;;;;;;;16.58;10.43;;;;;;;-1.34;94.00;101486.53;5076138;28;20016;-81
2021/01/15 04:06:28;;;;;;;16.25;9.38;;;;;;;-1.32;94.13;101487.47;5076242;28;20031;-81
2021/01/15 04:08:53;;;;;;;18.40;9.43;;;;;;;-1.37;93.76;101482.16;5076584;28;20128;-81
2021/01/15 04:11:19;;;;;;;18.17;9.60;;;;;;;-1.36;93.86;101480.50;5076831;28;20024;-81
2021/01/15 04:13:45;;;;;;;17.05;8.80;;;;;;;-1.35;93.67;101484.78;5075800;28;20036;-81
2021/01/15 04:16:14;;;;;;;16.92;8.57;;;;;;;-1.35;93.46;101488.22;5075793;28;20029;-80
2021/01/15 04:18:41;;;;;;;13.82;7.68;;;;;;;-1.37;93.54;101488.94;5075146;28;20043;-80
2021/01/15 04:21:07;;;;;;;12.07;7.55;;;;;;;-1.35;92.50;101483.13;5075371;28;20062;-80
2021/01/15 04:23:32;;;;;;;13.63;8.15;;;;;;;-1.37;92.81;101482.16;5076795;28;20025;-80
2021/01/15 04:25:57;;;;;;;14.48;8.02;;;;;;;-1.36;93.50;101486.44;5076081;28;20023;-81
2021/01/15 04:28:23;;;;;;;14.90;8.80;;;;;;;-1.38;93.73;101492.28;5076695;28;20132;-80
2021/01/15 04:30:48;;;;;;;16.40;8.55;;;;;;;-1.44;94.05;101490.34;5079025;28;20021;-80
2021/01/15 04:33:13;;;;;;;15.38;8.95;;;;;;;-1.42;94.02;101496.34;5075975;28;20029;-80
2021/01/15 04:35:38;;;;;;;17.25;9.07;;;;;;;-1.46;94.18;101489.38;5077504;28;20106;-80
2021/01/15 04:38:04;;;;;;;13.60;8.13;;;;;;;-1.45;93.97;101491.13;5076119;28;20032;-80
2021/01/15 04:40:29;;;;;;;12.25;7.45;;;;;;;-1.47;93.88;101492.75;5077006;28;20488;-80
2021/01/15 04:43:00;;;;;;;13.52;7.75;;;;;;;-1.47;93.32;101490.19;5077186;28;20107;-80
2021/01/15 04:45:26;;;;;;;16.50;7.35;;;;;;;-1.46;93.32;101499.56;5075214;28;20442;-81
2021/01/15 04:47:53;;;;;;;13.35;7.47;;;;;;;-1.47;93.79;101493.59;5077212;28;20150;-81
2021/01/15 04:50:18;;;;;;;12.93;6.57;;;;;;;-1.47;92.84;101497.81;5077155;28;20033;-81
2021/01/15 04:52:49;;;;;;;11.77;6.95;;;;;;;-1.49;92.30;101494.34;5075480;28;20033;-81
2021/01/15 04:55:20;;;;;;;11.38;6.60;;;;;;;-1.50;92.79;101496.00;5075332;28;20020;-81
2021/01/15 04:57:53;;;;;;;11.85;7.10;;;;;;;-1.51;93.06;101491.72;5075739;28;20449;-80
2021/01/15 05:00:21;;;;;;;12.93;7.00;;;;;;;-1.57;93.13;101499.09;5075148;28;20028;-80
2021/01/15 05:02:48;;;;;;;11.93;6.35;;;;;;;-1.55;92.28;101501.69;5075803;28;20029;-80
2021/01/15 05:05:25;;;;;;;13.18;6.55;;;;;;;-1.56;91.95;101510.13;5075122;28;20043;-80
2021/01/15 05:08:10;;;;;;;13.02;6.40;;;;;;;-1.55;92.15;101510.19;5075282;28;20396;-80
2021/01/15 05:10:40;;;;;;;;;;;;;;;-1.50;91.81;101511.28;5076061;28;20071;-80
2021/01/15 05:13:07;;;;;;;11.20;5.68;;;;;;;-1.54;91.96;101516.13;5074925;28;20428;-80
2021/01/15 05:15:34;;;;;;;10.98;6.22;;;;;;;-1.55;92.09;101512.72;5075151;28;20036;-80
2021/01/15 05:18:03;;;;;;;11.10;5.82;;;;;;;-1.56;90.33;101515.22;5076050;28;20020;-80
2021/01/15 05:20:30;;;;;;;12.68;5.20;;;;;;;-1.57;89.24;101514.34;5076362;28;20020;-80
2021/01/15 05:22:59;;;;;;;13.35;6.07;;;;;;;-1.56;90.10;101516.06;5074594;28;20111;-81
2021/01/15 05:25:25;;;;;;;10.48;5.65;;;;;;;-1.56;90.24;101521.16;5076139;28;20138;-81
2021/01/15 05:27:51;;;;;;;10.25;5.75;;;;;;;-1.57;90.17;101516.00;5074605;28;20479;-81
2021/01/15 05:30:24;;;;;;;13.77;5.45;;;;;;;-1.57;90.60;101523.63;5073903;28;20028;-81
2021/01/15 05:32:57;;;;;;;10.57;5.78;;;;;;;-1.58;91.12;101521.88;5074349;28;20025;-81
2021/01/15 05:35:39;;;;;;;10.35;5.85;;;;;;;-1.56;90.80;101522.84;5076107;28;20026;-81
2021/01/15 05:38:04;;;;;;;13.98;6.47;;;;;;;-1.54;90.86;101529.75;5074978;28;20024;-81
2021/01/15 05:40:38;;;;;;;12.00;5.93;;;;;;;-1.56;91.33;101527.94;5076399;28;20063;-81
2021/01/15 05:43:05;;;;;;;13.68;6.80;;;;;;;-1.54;91.03;101531.41;5080395;28;20035;-81
2021/01/15 05:45:30;;;;;;;12.02;6.38;;;;;;;-1.57;91.45;101532.16;5078442;28;20024;-81
2021/01/15 05:47:55;;;;;;;10.85;6.55;;;;;;;-1.55;91.66;101527.97;5078182;28;20384;-81
2021/01/15 05:50:21;;;;;;;11.60;5.82;;;;;;;-1.53;91.70;101539.13;5079618;28;20391;-81
2021/01/15 05:52:57;;;;;;;12.82;6.28;;;;;;;-1.52;92.00;101542.53;5077821;28;20115;-81
2021/01/15 05:55:24;;;;;;;10.82;6.18;;;;;;;-1.55;92.33;101540.69;5078159;28;20024;-81
2021/01/15 05:57:50;;;;;;;12.23;6.88;;;;;;;-1.53;92.24;101540.78;5079738;28;20020;-81
2021/01/15 06:00:25;;;;;;;14.90;7.72;;;;;;;-1.58;92.78;101548.19;5080032;28;20472;-81
2021/01/15 06:02:51;;;;;;;;;;;;;;;-1.60;92.65;101549.81;5080684;28;20097;-81
2021/01/15 06:05:18;;;;;;;11.82;6.22;;;;;;;-1.59;92.45;101554.09;5077993;28;19909;-81
2021/01/15 06:07:43;;;;;;;13.13;6.32;;;;;;;-1.65;91.99;101556.34;5078052;28;20060;-81
2021/01/15 06:10:10;;;;;;;12.77;6.15;;;;;;;-1.64;91.79;101561.50;5079877;28;20025;-81
2021/01/15 06:12:41;;;;;;;11.25;6.60;;;;;;;-1.67;91.82;101556.25;5079883;28;20552;-81
2021/01/15 06:15:07;;;;;;;12.13;6.90;;;;;;;-1.63;92.05;101558.16;5080418;28;20024;-81
2021/01/15 06:17:38;;;;;;;13.02;6.70;;;;;;;-1.64;91.81;101560.63;5079432;28;20047;-81
2021/01/15 06:20:04;;;;;;;12.20;5.60;;;;;;;-1.68;91.14;101553.66;5080655;28;20031;-81
2021/01/15 06:22:49;;;;;;;11.18;6.28;;;;;;;-1.70;91.37;101563.75;5079985;28;20029;-81
2021/01/15 06:25:25;;;;;;;;;;;;;;;-1.72;91.50;101561.94;5078621;28;20054;-81
2021/01/15 06:27:55;;;;;;;11.65;6.53;;;;;;;-1.76;91.02;101568.53;5078626;28;19924;-81
2021/01/15 06:30:23;;;;;;;12.77;6.20;;;;;;;-1.78;90.58;101565.06;5078492;28;20150;-81
2021/01/15 06:32:49;;;;;;;10.95;5.85;;;;;;;-1.76;89.45;101562.56;5078544;28;20021;-81
2021/01/15 06:35:28;;;;;;;12.40;5.97;;;;;;;-1.79;89.59;101570.06;5080321;28;20047;-81
2021/01/15 06:38:02;;;;;;;13.27;6.35;;;;;;;-1.82;90.31;101575.88;5079833;28;20048;-81
2021/01/15 06:40:31;;;;;;;13.35;6.32;;;;;;;-1.85;89.90;101580.81;5078727;28;20054;-81
2021/01/15 06:42:58;;;;;;;11.43;6.63;;;;;;;-1.86;89.62;101586.69;5078940;28;20030;-81
2021/01/15 06:45:23;;;;;;;12.05;6.50;;;;;;;-1.80;89.20;101581.03;5078673;28;20059;-81
2021/01/15 06:47:53;;;;;;;11.40;6.15;;;;;;;-1.84;89.61;101582.56;5080294;28;20056;-81
2021/01/15 06:50:18;;;;;;;14.48;6.95;;;;;;;-1.89;89.71;101581.47;5080360;28;20054;-81
2021/01/15 06:52:50;;;;;;;12.52;6.47;;;;;;;-1.87;89.93;101582.41;5078325;28;20024;-81
2021/01/15 06:55:18;;;;;;;10.88;5.97;;;;;;;-1.87;89.37;101587.50;5078193;28;20020;-81
2021/01/15 06:57:55;;;;;;;12.75;6.45;;;;;;;-1.84;89.22;101585.13;5079821;28;20078;-81
2021/01/15 07:00:22;;;;;;;12.23;6.10;;;;;;;-1.91;89.16;101586.50;5078942;28;20016;-81
2021/01/15 07:03:28;;;;;;;11.80;6.43;;;;;;;-1.91;90.19;101588.13;5080717;28;20020;-82
2021/01/15 07:05:55;;;;;;;11.88;6.07;;;;;;;-1.90;89.33;101590.75;5063413;28;20037;-81
2021/01/15 07:08:23;;;;;;;10.35;6.13;;;;;;;-1.89;89.60;101594.19;5080074;28;20431;-81
2021/01/15 07:10:48;;;;;;;13.10;6.80;;;;;;;-1.90;89.50;101593.31;5079235;28;20020;-81
2021/01/15 07:13:21;;;;;;;14.85;7.18;;;;;;;-1.91;89.66;101601.75;5080676;28;20074;-81
2021/01/15 07:15:54;;;;;;;11.32;6.28;;;;;;;-1.92;89.55;101606.75;5079018;28;20097;-81
2021/01/15 07:18:31;;;;;;;15.93;6.97;;;;;;;-1.93;89.70;101612.63;5086710;28;20032;-81
2021/01/15 07:20:59;;;;;;;11.90;7.57;;;;;;;-1.94;89.42;101610.84;5090532;28;20004;-81
2021/01/15 07:23:50;;;;;;;13.43;7.57;;;;;;;-1.95;89.38;101609.13;5090390;28;20033;-81
2021/01/15 07:26:17;;;;;;;13.95;7.25;;;;;;;-1.95;88.79;101609.13;5085238;28;20027;-80
2021/01/15 07:28:43;;;;;;;13.13;6.72;;;;;;;-1.95;89.14;101606.59;5080130;28;20021;-81
2021/01/15 07:31:22;;;;;;;15.20;7.10;;;;;;;-1.96;89.92;101620.09;5078851;28;20035;-81
2021/01/15 07:33:51;;;;;;;12.95;7.25;;;;;;;-1.98;88.80;101612.38;5079183;28;20024;-81
2021/01/15 07:36:37;;;;;;;11.52;6.50;;;;;;;-1.97;88.62;101616.69;5077861;28;20016;-81
2021/01/15 07:39:05;;;;;;;11.77;6.75;;;;;;;-2.00;88.26;101624.16;5079014;28;20028;-81
2021/01/15 07:41:56;;;;;;;14.00;6.63;;;;;;;-2.02;88.65;101623.22;5079502;28;20024;-80
2021/01/15 07:44:24;;;;;;;11.63;6.93;;;;;;;-2.04;88.54;101624.78;5079157;28;20050;-82
2021/01/15 07:46:55;;;;;;;12.52;6.82;;;;;;;-2.00;88.37;101619.09;5077546;28;20483;-81
2021/01/15 07:49:20;;;;;;;13.10;7.60;;;;;;;-2.02;87.85;101629.97;5078918;28;20025;-81
2021/01/15 07:52:04;;;;;;;13.38;7.38;;;;;;;-1.97;88.33;101631.94;5079278;28;20035;-81
2021/01/15 07:54:44;;;;;;;14.13;7.43;;;;;;;-2.00;88.35;101630.91;5079589;28;20042;-81
2021/01/15 07:57:11;;;;;;;13.20;7.18;;;;;;;-1.96;88.37;101632.81;5078846;28;20107;-81
2021/01/15 07:59:36;;;;;;;14.10;7.65;;;;;;;-1.98;87.65;101640.34;5077226;28;20031;-81
2021/01/15 08:02:02;;;;;;;14.65;7.72;;;;;;;-1.98;88.32;101639.47;5078682;28;20029;-81
2021/01/15 08:04:27;;;;;;;15.18;8.13;;;;;;;-1.97;88.72;101651.38;5078098;28;20032;-84
2021/01/15 08:06:59;;;;;;;14.82;8.32;;;;;;;-1.96;88.19;101648.06;5077722;28;20035;-80
2021/01/15 08:09:24;;;;;;;14.07;7.82;;;;;;;-1.93;87.56;101648.22;5061198;28;20020;-80
2021/01/15 08:11:59;;;;;;;12.98;6.82;;;;;;;-1.92;86.94;101652.50;5074713;28;20051;-84
2021/01/15 08:14:30;;;;;;;13.07;7.47;;;;;;;-1.94;87.00;101651.53;5075088;28;20070;-84
2021/01/15 08:16:56;;;;;;;14.02;7.72;;;;;;;-1.93;87.37;101655.84;5077594;28;20025;-84
2021/01/15 08:19:21;;;;;;;14.75;7.30;;;;;;;-1.94;86.94;101654.06;5077857;28;20491;-84
2021/01/15 08:21:48;;;;;;;14.60;7.40;;;;;;;-1.90;86.79;101651.78;5075649;28;20028;-84
2021/01/15 08:24:14;;;;;;;13.68;7.40;;;;;;;-1.94;86.98;101652.44;5074253;28;20031;-84
2021/01/15 08:26:50;;;;;;;14.93;7.90;;;;;;;-1.94;87.04;101661.72;5075493;28;20025;-85
2021/01/15 08:29:17;;;;;;;14.20;7.22;;;;;;;-1.91;86.81;101656.78;5079349;28;20025;-84
2021/01/15 08:31:43;;;;;;;16.02;8.35;;;;;;;-1.91;86.50;101649.16;5079866;28;20023;-84
2021/01/15 08:34:11;;;;;;;15.18;7.75;;;;;;;-1.94;86.37;101649.91;5077604;28;20055;-84
2021/01/15 08:36:40;;;;;;;13.57;8.07;;;;;;;-1.88;86.63;101651.84;5076080;28;20042;-84
2021/01/15 08:39:08;;;;;;;14.50;7.50;;;;;;;-1.88;86.28;101652.75;5078920;28;20480;-83
2021/01/15 08:41:34;;;;;;;14.35;8.00;;;;;;;-1.89;86.60;101650.09;5076822;28;20028;-84
2021/01/15 08:44:00;;;;;;;14.02;7.78;;;;;;;-1.91;86.79;101656.78;5079914;28;20055;-84
2021/01/15 08:46:25;;;;;;;13.98;7.95;;;;;;;-1.92;86.38;101662.66;5078325;28;20052;-84
2021/01/15 08:48:50;;;;;;;14.02;8.48;;;;;;;-1.91;86.55;101666.94;5080339;28;20028;-84
2021/01/15 08:51:19;;;;;;;15.07;8.50;;;;;;;-1.93;86.09;101663.47;5077786;28;20032;-84
2021/01/15 08:54:05;;;;;;;14.00;8.60;;;;;;;-1.91;86.22;101666.94;5076961;28;20031;-84
2021/01/15 08:56:45;;;;;;;13.80;8.48;;;;;;;-1.99;85.86;101671.66;5074484;28;20025;-84
2021/01/15 08:59:13;;;;;;;14.15;7.18;;;;;;;-1.99;84.98;101673.34;5075863;28;20476;-85
2021/01/15 09:01:40;;;;;;;15.85;9.02;;;;;;;-1.91;85.36;101678.00;5073640;28;20042;-86
2021/01/15 09:04:08;;;;;;;14.35;7.80;;;;;;;-1.94;84.76;101679.50;5074438;28;20469;-86
2021/01/15 09:06:34;;;;;;;15.38;8.73;;;;;;;-1.95;85.02;101680.31;5074879;28;20477;-85
2021/01/15 09:09:03;;;;;;;17.60;8.85;;;;;;;-2.07;85.18;101680.56;5074747;28;20059;-85
2021/01/15 09:11:34;;;;;;;15.98;8.32;;;;;;;-2.02;85.08;101685.88;5075264;28;20130;-84
2021/01/15 09:14:00;;;;;;;14.43;8.27;;;;;;;-1.97;84.75;101686.97;5073874;28;20021;-84
2021/01/15 09:16:28;;;;;;;15.40;8.60;;;;;;;-1.99;84.71;101691.13;5076992;28;20024;-84
2021/01/15 09:18:55;;;;;;;15.10;8.95;;;;;;;-1.99;84.32;101691.13;5080639;28;20055;-85
2021/01/15 09:21:21;;;;;;;12.60;7.93;;;;;;;-2.01;84.36;101691.03;5080629;28;20469;-83
2021/01/15 09:23:47;;;;;;;13.80;8.15;;;;;;;-2.04;84.20;101690.00;5080279;28;20028;-83
2021/01/15 09:26:13;;;;;;;15.80;8.15;;;;;;;-1.99;84.80;101686.91;5080328;28;20091;-84
2021/01/15 09:28:38;;;;;;;15.93;9.35;;;;;;;-1.98;84.27;101693.72;5079349;28;20111;-84
2021/01/15 09:31:04;;;;;;;16.58;8.85;;;;;;;-1.97;84.73;101692.97;5079195;28;20107;-84
2021/01/15 09:33:30;;;;;;;13.80;7.55;;;;;;;-1.99;83.40;101698.75;5079433;28;20078;-84
2021/01/15 09:35:55;;;;;;;15.18;8.65;;;;;;;-1.99;84.02;101703.84;5078245;28;20510;-85
2021/01/15 09:38:21;;;;;;;15.18;8.35;;;;;;;-2.02;83.46;101701.13;5078772;28;20028;-84
2021/01/15 09:40:46;;;;;;;16.10;8.52;;;;;;;-2.00;83.72;101712.25;5080241;28;20510;-84
2021/01/15 09:43:11;;;;;;;14.77;8.13;;;;;;;-1.99;83.25;101714.00;5078570;28;20020;-83
2021/01/15 09:45:36;;;;;;;15.07;8.70;;;;;;;-1.96;83.18;101711.63;5078280;28;20110;-84
2021/01/15 09:48:07;;;;;;;14.10;8.57;;;;;;;-2.04;83.48;101717.97;5079734;28;20111;-84
2021/01/15 09:50:32;;;;;;;15.85;8.75;;;;;;;-2.00;82.99;101718.22;5079528;28;20027;-84
2021/01/15 09:52:57;;;;;;;14.57;7.88;;;;;;;-1.97;83.15;101722.56;5078298;28;20028;-83
2021/01/15 09:55:22;;;;;;;14.60;8.30;;;;;;;-2.00;83.17;101722.41;5080662;28;20028;-83
2021/01/15 09:57:48;;;;;;;13.18;8.10;;;;;;;-2.04;83.20;101730.69;5081074;28;20036;-84
2021/01/15 10:00:13;;;;;;;14.55;7.82;;;;;;;-1.99;83.46;101726.72;5078781;28;20522;-84
2021/01/15 10:02:39;;;;;;;14.00;7.53;;;;;;;-2.00;83.18;101728.38;5080288;28;20024;-81
2021/01/15 10:05:05;;;;;;;19.17;8.63;;;;;;;-2.08;83.59;101733.06;5080523;28;20079;-81
2021/01/15 10:07:30;;;;;;;13.73;8.25;;;;;;;-2.06;83.13;101738.25;5080896;28;20020;-81
2021/01/15 10:09:55;;;;;;;14.27;8.07;;;;;;;-1.95;83.40;101739.66;5080659;28;20082;-81
2021/01/15 10:12:20;;;;;;;17.92;8.38;;;;;;;-1.97;83.10;101741.25;5079745;28;20024;-81
2021/01/15 10:14:46;;;;;;;15.68;8.57;;;;;;;-1.94;83.44;101743.06;5081003;28;20062;-80
2021/01/15 10:17:11;;;;;;;19.10;7.70;;;;;;;-1.94;83.59;101736.31;5079057;28;20055;-83
2021/01/15 10:19:36;;;;;;;18.13;8.85;;;;;;;-1.96;83.38;101747.22;5079828;28;20024;-84
2021/01/15 10:22:01;;;;;;;13.30;7.80;;;;;;;-1.96;82.76;101742.13;5080297;28;20024;-83
2021/01/15 10:24:27;;;;;;;33.33;9.23;;;;;;;-1.99;83.26;101747.91;5079398;28;20024;-82
2021/01/15 10:26:52;;;;;;;15.15;8.18;;;;;;;-1.87;83.49;101742.59;5080945;28;20051;-82
2021/01/15 10:29:17;;;;;;;14.75;8.57;;;;;;;-1.97;83.50;101745.44;5079028;28;20017;-82
2021/01/15 10:31:48;;;;;;;14.45;7.95;;;;;;;-1.93;82.85;101747.38;5080891;28;20055;-82
2021/01/15 10:34:14;;;;;;;14.50;8.27;;;;;;;-1.98;83.13;101744.56;5080627;28;20036;-82
2021/01/15 10:36:43;;;;;;;13.63;8.20;;;;;;;-2.06;82.91;101744.97;5080269;28;20549;-84
2021/01/15 10:39:10;;;;;;;17.17;9.25;;;;;;;-2.02;83.52;101737.59;5077100;28;20107;-83
2021/01/15 10:41:44;;;;;;;14.88;7.88;;;;;;;-1.96;82.81;101744.66;5079226;28;20077;-83
2021/01/15 10:44:10;;;;;;;15.93;8.95;;;;;;;-1.93;82.76;101738.06;5081484;28;20052;-82
2021/01/15 10:46:41;;;;;;;15.57;8.20;;;;;;;-1.84;82.72;101740.22;5080040;28;20033;-82
2021/01/15 10:49:08;;;;;;;14.98;8.20;;;;;;;-1.88;82.99;101743.38;5082514;28;20024;-83
2021/01/15 10:51:33;;;;;;;15.57;8.25;;;;;;;-1.83;83.24;101736.84;5081535;28;20020;-83
2021/01/15 10:53:59;;;;;;;16.70;8.32;;;;;;;-1.88;82.60;101734.09;5080273;28;20153;-84
2021/01/15 10:56:24;;;;;;;16.17;9.43;;;;;;;-1.95;82.79;101738.78;5079318;28;20020;-84
2021/01/15 10:58:51;;;;;;;14.98;8.18;;;;;;;-1.86;82.61;101736.72;5080473;28;20025;-84
2021/01/15 11:01:16;;;;;;;14.68;8.40;;;;;;;-1.88;83.31;101741.72;5079886;28;20031;-81
2021/01/15 11:03:45;;;;;;;14.15;8.57;;;;;;;-1.85;82.54;101738.44;5078791;28;20107;-83
2021/01/15 11:06:20;;;;;;;14.20;8.05;;;;;;;-1.86;82.46;101736.72;5079853;28;20103;-82
2021/01/15 11:08:45;;;;;;;13.65;7.18;;;;;;;-1.78;82.59;101739.66;5079716;28;20067;-84
2021/01/15 11:11:10;;;;;;;14.38;7.57;;;;;;;-1.84;82.29;101740.22;5088981;28;20024;-83
2021/01/15 11:13:35;;;;;;;12.93;7.78;;;;;;;-1.81;81.76;101745.44;5089505;28;20031;-82
2021/01/15 11:16:01;;;;;;;12.85;7.25;;;;;;;-1.87;82.07;101746.00;5080725;28;20036;-82
2021/01/15 11:18:26;;;;;;;15.50;7.63;;;;;;;-1.83;82.11;101741.94;5081396;28;20562;-82
2021/01/15 11:20:51;;;;;;;12.80;7.65;;;;;;;-1.82;82.35;101747.91;5080387;28;20024;-82
2021/01/15 11:23:16;;;;;;;14.52;7.82;;;;;;;-1.87;82.28;101747.69;5078997;28;20059;-81
2021/01/15 11:25:43;;;;;;;13.70;7.35;;;;;;;-1.87;82.58;101745.13;5080256;28;20032;-81